createdAt,value
2019-05-15T00:01:35.256Z,99153.72
2019-05-15T00:04:09.333Z,99151.74
2019-05-15T00:06:43.856Z,99148.30
2019-05-15T00:09:18.883Z,99149.06
2019-05-15T00:11:50.846Z,99141.16
2019-05-15T00:14:23.627Z,99140.63
2019-05-15T00:16:58.548Z,99132.53
2019-05-15T00:19:30.871Z,99129.54
2019-05-15T00:22:03.867Z,99125.02
2019-05-15T00:24:38.160Z,99125.04
2019-05-15T00:27:11.416Z,99118.92
2019-05-15T00:29:43.392Z,99114.89
2019-05-15T00:32:18.474Z,99120.14
2019-05-15T00:34:50.855Z,99113.69
2019-05-15T00:37:23.822Z,99113.01
2019-05-15T00:39:59.185Z,99113.56
2019-05-15T00:42:32.239Z,99106.91
2019-05-15T00:45:05.401Z,99102.94
2019-05-15T00:47:39.704Z,99102.66
2019-05-15T00:50:13.470Z,99097.02
2019-05-15T00:52:48.308Z,99096.75
2019-05-15T00:55:22.367Z,99091.67
2019-05-15T00:57:55.593Z,99094.59
2019-05-15T01:00:43.518Z,99092.34
2019-05-15T01:03:18.081Z,99088.02
2019-05-15T01:05:50.558Z,99084.74
2019-05-15T01:08:23.515Z,99084.55
2019-05-15T01:10:58.057Z,99076.41
2019-05-15T01:13:30.188Z,99071.97
2019-05-15T01:16:03.149Z,99070.86
2019-05-15T01:18:35.279Z,99075.64
2019-05-15T01:21:08.421Z,99073.47
2019-05-15T01:23:40.948Z,99067.09
2019-05-15T01:26:13.576Z,99066.42
2019-05-15T01:28:49.252Z,99059.08
2019-05-15T01:31:21.045Z,99054.98
2019-05-15T01:33:53.363Z,99049.33
2019-05-15T01:36:25.069Z,99054.59
2019-05-15T01:38:58.454Z,99050.28
2019-05-15T01:41:31.437Z,99050.66
2019-05-15T01:44:03.781Z,99055.92
2019-05-15T01:46:35.881Z,99051.62
2019-05-15T01:49:08.401Z,99055.47
2019-05-15T01:51:40.730Z,99046.92
2019-05-15T01:54:13.154Z,99047.67
2019-05-15T01:56:45.930Z,99048.64
2019-05-15T01:59:18.963Z,99038.39
2019-05-15T02:01:51.126Z,99046.02
2019-05-15T02:04:23.012Z,99049.02
2019-05-15T02:06:55.844Z,99043.17
2019-05-15T02:09:28.857Z,99045.82
2019-05-15T02:12:01.897Z,99045.46
2019-05-15T02:14:34.656Z,99049.86
2019-05-15T02:17:08.463Z,99047.52
2019-05-15T02:19:42.006Z,99048.70
2019-05-15T02:22:13.121Z,99044.56
2019-05-15T02:24:45.367Z,99036.59
2019-05-15T02:27:18.718Z,99043.88
2019-05-15T02:29:52.109Z,99039.75
2019-05-15T02:32:24.184Z,99041.16
2019-05-15T02:34:58.982Z,99034.94
2019-05-15T02:37:31.857Z,99028.38
2019-05-15T02:40:04.315Z,99031.37
2019-05-15T02:42:39.949Z,99030.12
2019-05-15T02:45:12.068Z,99034.96
2019-05-15T02:47:45.149Z,99031.86
2019-05-15T02:50:20.443Z,99028.91
2019-05-15T02:52:51.813Z,99031.88
2019-05-15T02:55:24.594Z,99030.02
2019-05-15T02:57:59.065Z,99022.69
2019-05-15T03:00:41.848Z,99027.22
2019-05-15T03:03:09.168Z,99021.61
2019-05-15T03:05:41.139Z,99022.12
2019-05-15T03:08:13.476Z,99025.70
2019-05-15T03:10:49.371Z,99023.81
2019-05-15T03:13:20.395Z,99024.60
2019-05-15T03:15:53.152Z,99022.33
2019-05-15T03:18:28.685Z,99023.25
2019-05-15T03:21:00.732Z,99016.46
2019-05-15T03:23:34.084Z,99021.08
2019-05-15T03:26:08.918Z,99016.00
2019-05-15T03:28:41.570Z,99008.03
2019-05-15T03:31:35.924Z,99010.23
2019-05-15T03:33:53.789Z,99007.85
2019-05-15T03:36:24.615Z,99011.47
2019-05-15T03:38:58.647Z,99016.63
2019-05-15T03:41:31.159Z,99017.10
2019-05-15T03:44:03.955Z,99021.63
2019-05-15T03:46:39.870Z,99026.11
2019-05-15T03:49:11.063Z,99022.58
2019-05-15T03:51:45.813Z,99016.41
2019-05-15T03:54:19.041Z,99013.62
2019-05-15T03:56:51.401Z,99013.08
2019-05-15T03:59:24.117Z,99012.83
2019-05-15T04:01:59.971Z,99020.34
2019-05-15T04:04:31.294Z,99016.11
2019-05-15T04:07:04.010Z,99020.53
2019-05-15T04:09:38.690Z,99012.30
2019-05-15T04:12:10.863Z,99011.95
2019-05-15T04:14:43.999Z,99011.00
2019-05-15T04:17:19.504Z,99011.77
2019-05-15T04:19:50.014Z,99011.41
2019-05-15T04:22:22.470Z,99009.93
2019-05-15T04:24:59.002Z,99007.58
2019-05-15T04:27:31.940Z,99014.41
2019-05-15T04:30:04.688Z,99016.50
2019-05-15T04:32:39.788Z,99015.77
2019-05-15T04:35:12.234Z,99017.27
2019-05-15T04:37:44.626Z,99009.75
2019-05-15T04:40:19.400Z,99007.07
2019-05-15T04:42:51.445Z,99009.42
2019-05-15T04:45:24.217Z,99005.08
2019-05-15T04:47:58.750Z,99002.45
2019-05-15T04:50:31.845Z,99000.95
2019-05-15T04:53:04.073Z,99003.03
2019-05-15T04:55:40.076Z,99003.59
2019-05-15T04:58:11.488Z,99002.92
2019-05-15T05:00:52.398Z,98998.52
2019-05-15T05:03:25.013Z,99001.13
2019-05-15T05:05:59.098Z,99000.55
2019-05-15T05:08:32.107Z,99005.34
2019-05-15T05:11:04.788Z,99001.87
2019-05-15T05:13:39.180Z,99000.70
2019-05-15T05:16:11.651Z,98997.84
2019-05-15T05:18:43.720Z,98993.41
2019-05-15T05:21:18.425Z,98986.55
2019-05-15T05:23:51.327Z,98995.26
2019-05-15T05:26:24.110Z,98998.70
2019-05-15T05:29:01.096Z,98997.91
2019-05-15T05:31:30.839Z,98995.28
2019-05-15T05:34:03.594Z,98999.81
2019-05-15T05:36:38.444Z,98993.74
2019-05-15T05:39:13.610Z,98999.66
2019-05-15T05:41:45.928Z,98993.59
2019-05-15T05:44:19.000Z,98993.69
2019-05-15T05:46:50.735Z,98997.48
2019-05-15T05:49:23.961Z,98996.29
2019-05-15T05:51:58.634Z,98994.16
2019-05-15T05:54:30.649Z,98994.89
2019-05-15T05:57:02.731Z,98996.73
2019-05-15T05:59:34.803Z,98993.05
2019-05-15T06:02:08.195Z,98996.19
2019-05-15T06:04:41.114Z,99004.63
2019-05-15T06:07:14.521Z,99005.69
2019-05-15T06:09:48.633Z,98995.50
2019-05-15T06:12:21.075Z,98998.48
2019-05-15T06:14:53.819Z,98993.50
2019-05-15T06:17:28.062Z,98998.39
2019-05-15T06:20:00.627Z,98996.16
2019-05-15T06:22:33.770Z,98995.13
2019-05-15T06:25:05.334Z,98995.42
2019-05-15T06:27:39.132Z,98999.55
2019-05-15T06:30:19.661Z,98993.75
2019-05-15T06:33:01.834Z,99001.34
2019-05-15T06:35:21.534Z,98991.62
2019-05-15T06:37:54.347Z,98995.35
2019-05-15T06:40:28.923Z,98995.69
2019-05-15T06:43:01.929Z,98989.70
2019-05-15T06:45:33.214Z,98993.49
2019-05-15T06:48:04.965Z,98991.16
2019-05-15T06:50:39.870Z,98994.52
2019-05-15T06:53:12.249Z,98990.77
2019-05-15T06:55:45.051Z,99000.25
2019-05-15T06:58:19.135Z,98997.48
2019-05-15T07:00:53.421Z,98997.72
2019-05-15T07:03:29.184Z,98993.89
2019-05-15T07:06:02.562Z,98994.44
2019-05-15T07:08:38.327Z,98987.41
2019-05-15T07:11:11.769Z,98986.84
2019-05-15T07:13:44.368Z,98990.83
2019-05-15T07:16:18.166Z,98987.80
2019-05-15T07:18:51.017Z,98989.32
2019-05-15T07:21:23.507Z,98985.69
2019-05-15T07:23:58.154Z,98988.89
2019-05-15T07:26:30.839Z,98992.41
2019-05-15T07:29:02.948Z,98985.05
2019-05-15T07:31:35.003Z,98980.22
2019-05-15T07:34:08.415Z,98979.72
2019-05-15T07:36:42.864Z,98982.44
2019-05-15T07:39:17.995Z,98984.06
2019-05-15T07:41:51.097Z,98974.53
2019-05-15T07:44:23.164Z,98977.73
2019-05-15T07:46:58.206Z,98976.59
2019-05-15T07:49:31.384Z,98979.83
2019-05-15T07:52:04.433Z,98982.40
2019-05-15T07:54:38.296Z,98973.63
2019-05-15T07:57:11.147Z,98968.52
2019-05-15T07:59:43.662Z,98971.84
2019-05-15T08:02:16.086Z,98973.33
2019-05-15T08:04:48.506Z,98967.34
2019-05-15T08:07:21.563Z,98965.37
2019-05-15T08:09:54.033Z,98965.22
2019-05-15T08:12:28.347Z,98968.90
2019-05-15T08:15:01.550Z,98961.56
2019-05-15T08:17:34.821Z,98962.80
2019-05-15T08:20:11.389Z,98970.88
2019-05-15T08:22:45.953Z,98963.53
2019-05-15T08:25:30.520Z,98965.88
2019-05-15T08:27:54.257Z,98976.80
2019-05-15T08:30:28.873Z,98969.56
2019-05-15T08:33:02.109Z,98972.25
2019-05-15T08:35:34.242Z,98960.58
2019-05-15T08:38:08.856Z,98962.74
2019-05-15T08:40:41.454Z,98966.04
2019-05-15T08:43:14.583Z,98959.15
2019-05-15T08:45:45.366Z,98964.33
2019-05-15T08:48:18.435Z,98967.01
2019-05-15T08:50:51.576Z,98959.95
2019-05-15T08:53:28.439Z,98960.69
2019-05-15T08:56:01.408Z,98953.98
2019-05-15T08:58:33.495Z,98952.14
2019-05-15T09:01:05.580Z,98957.44
2019-05-15T09:03:38.284Z,98948.05
2019-05-15T09:06:10.350Z,98955.53
2019-05-15T09:08:43.184Z,98952.75
2019-05-15T09:11:15.612Z,98949.70
2019-05-15T09:13:53.682Z,98955.53
2019-05-15T09:16:24.287Z,98935.65
2019-05-15T09:19:00.318Z,98942.16
2019-05-15T09:21:34.285Z,98945.16
2019-05-15T09:24:09.583Z,98944.28
2019-05-15T09:26:43.751Z,98942.78
2019-05-15T09:29:18.236Z,98941.80
2019-05-15T09:31:50.795Z,98935.52
2019-05-15T09:34:24.115Z,98934.14
2019-05-15T09:36:59.756Z,98940.17
2019-05-15T09:39:31.286Z,98934.03
2019-05-15T09:42:03.723Z,98933.45
2019-05-15T09:44:36.487Z,98927.32
2019-05-15T09:47:09.341Z,98927.77
2019-05-15T09:49:42.159Z,98922.30
2019-05-15T09:52:14.887Z,98912.59
2019-05-15T09:54:45.925Z,98902.05
2019-05-15T09:57:18.802Z,98910.54
2019-05-15T09:59:52.947Z,98904.48
2019-05-15T10:02:28.405Z,98906.37
2019-05-15T10:05:06.382Z,98911.86
2019-05-15T10:07:36.776Z,98905.94
2019-05-15T10:10:09.624Z,98913.27
2019-05-15T10:12:41.603Z,98917.78
2019-05-15T10:15:18.753Z,98911.26
2019-05-15T10:17:51.645Z,98904.05
2019-05-15T10:20:23.939Z,98899.66
2019-05-15T10:22:58.870Z,98902.00
2019-05-15T10:25:30.981Z,98898.75
2019-05-15T10:28:03.995Z,98892.92
2019-05-15T10:30:39.247Z,98884.27
2019-05-15T10:33:10.996Z,98886.92
2019-05-15T10:35:45.301Z,98894.27
2019-05-15T10:38:19.590Z,98889.99
2019-05-15T10:41:03.779Z,98880.74
2019-05-15T10:43:28.762Z,98883.20
2019-05-15T10:46:01.425Z,98884.55
2019-05-15T10:48:33.899Z,98873.16
2019-05-15T10:51:09.766Z,98868.11
2019-05-15T10:53:40.478Z,98865.80
2019-05-15T10:56:13.975Z,98862.98
2019-05-15T10:58:50.113Z,98854.84
2019-05-15T11:01:20.957Z,98862.75
2019-05-15T11:03:53.419Z,98839.05
2019-05-15T11:06:25.931Z,98844.02
2019-05-15T11:08:58.398Z,98847.09
2019-05-15T11:11:31.731Z,98842.31
2019-05-15T11:14:03.969Z,98842.92
2019-05-15T11:16:39.145Z,98851.25
2019-05-15T11:19:10.754Z,98853.33
2019-05-15T11:21:43.881Z,98854.91
2019-05-15T11:24:16.485Z,98844.26
2019-05-15T11:26:49.890Z,98837.44
2019-05-15T11:29:21.902Z,98834.64
2019-05-15T11:31:54.420Z,98835.86
2019-05-15T11:34:29.017Z,98830.30
2019-05-15T11:37:01.374Z,98832.44
2019-05-15T11:39:32.828Z,98824.06
2019-05-15T11:42:04.893Z,98814.78
2019-05-15T11:44:38.821Z,98822.60
2019-05-15T11:47:11.037Z,98812.88
2019-05-15T11:49:44.973Z,98798.07
2019-05-15T11:52:18.836Z,98807.28
2019-05-15T11:54:51.426Z,98796.33
2019-05-15T11:57:37.317Z,98793.06
2019-05-15T12:00:00.757Z,98794.88
2019-05-15T12:02:33.540Z,98794.41
2019-05-15T12:05:08.945Z,98782.59
2019-05-15T12:07:40.328Z,98790.16
2019-05-15T12:10:13.612Z,98805.78
2019-05-15T12:12:49.483Z,98792.06
2019-05-15T12:15:20.943Z,98790.29
2019-05-15T12:17:53.538Z,98790.66
2019-05-15T12:20:28.379Z,98800.28
2019-05-15T12:23:00.299Z,98806.77
2019-05-15T12:25:32.911Z,98806.16
2019-05-15T12:28:04.722Z,98805.20
2019-05-15T12:30:40.229Z,98804.75
2019-05-15T12:33:12.376Z,98800.67
2019-05-15T12:35:45.365Z,98808.52
2019-05-15T12:38:18.775Z,98822.41
2019-05-15T13:01:25.581Z,98799.23
2019-05-15T13:03:57.961Z,98801.89
2019-05-15T13:06:30.727Z,98801.22
2019-05-15T13:09:01.680Z,98799.77
2019-05-15T13:11:34.020Z,98795.99
2019-05-15T13:14:08.156Z,98792.15
2019-05-15T13:16:41.138Z,98792.19
2019-05-15T13:19:13.788Z,98782.84
2019-05-15T13:21:51.435Z,98778.45
2019-05-15T13:24:20.859Z,98784.11
2019-05-15T13:26:53.586Z,98775.66
2019-05-15T13:29:24.952Z,98786.28
2019-05-15T13:31:58.405Z,98781.65
2019-05-15T13:34:31.079Z,98788.17
2019-05-15T13:37:03.493Z,98789.84
2019-05-15T13:39:39.134Z,98785.84
2019-05-15T13:42:11.769Z,98784.61
2019-05-15T13:44:44.827Z,98782.20
2019-05-15T13:47:17.741Z,98784.06
2019-05-15T13:49:51.261Z,98781.42
2019-05-15T13:52:23.678Z,98780.56
2019-05-15T13:54:56.071Z,98773.71
2019-05-15T13:57:29.807Z,98773.67
2019-05-15T14:00:03.024Z,98773.91
2019-05-15T14:02:35.113Z,98775.33
2019-05-15T14:05:09.576Z,98768.66
2019-05-15T14:07:49.775Z,98767.58
2019-05-15T14:10:18.165Z,98764.75
2019-05-15T14:12:50.506Z,98759.78
2019-05-15T14:15:23.628Z,98773.23
2019-05-15T14:17:57.775Z,98759.50
2019-05-15T14:20:30.482Z,98756.42
2019-05-15T14:23:02.720Z,98757.63
2019-05-15T14:25:35.723Z,98753.09
2019-05-15T14:28:08.791Z,98759.88
2019-05-15T14:30:41.852Z,98764.22
2019-05-15T14:33:14.301Z,98760.90
2019-05-15T14:35:48.292Z,98759.58
2019-05-15T14:38:20.665Z,98761.78
2019-05-15T14:40:53.468Z,98756.73
2019-05-15T14:43:25.259Z,98758.59
2019-05-15T14:45:58.692Z,98763.07
2019-05-15T14:48:31.232Z,98761.23
2019-05-15T14:51:03.558Z,98757.38
2019-05-15T14:53:38.389Z,98752.59
2019-05-15T14:56:09.996Z,98751.59
2019-05-15T14:58:43.538Z,98755.59
2019-05-15T15:01:18.328Z,98767.78
2019-05-15T15:03:50.561Z,98761.74
2019-05-15T15:06:23.303Z,98761.55
2019-05-15T15:08:55.540Z,98761.23
2019-05-15T15:11:28.554Z,98762.59
2019-05-15T15:14:00.114Z,98768.78
2019-05-15T15:16:32.490Z,98772.17
2019-05-15T15:19:05.633Z,98769.50
2019-05-15T15:21:38.665Z,98779.50
2019-05-15T15:24:11.458Z,98775.57
2019-05-15T15:26:43.444Z,98778.73
2019-05-15T15:29:19.020Z,98776.27
2019-05-15T15:31:51.843Z,98778.27
2019-05-15T15:34:28.255Z,98772.06
2019-05-15T15:37:02.000Z,98779.20
2019-05-15T15:39:34.902Z,98777.01
2019-05-15T15:42:08.612Z,98779.63
2019-05-15T15:44:41.482Z,98781.03
2019-05-15T15:47:14.070Z,98785.42
2019-05-15T15:49:47.916Z,98780.03
2019-05-15T15:52:20.469Z,98787.98
2019-05-15T15:54:52.278Z,98781.37
2019-05-15T15:57:24.983Z,98784.59
2019-05-15T15:59:57.126Z,98777.77
2019-05-15T16:02:30.147Z,98783.98
2019-05-15T16:05:01.231Z,98775.31
2019-05-15T16:07:37.807Z,98776.88
2019-05-15T16:10:11.185Z,98781.15
2019-05-15T16:12:43.462Z,98777.30
2019-05-15T16:15:17.989Z,98788.00
2019-05-15T16:17:50.937Z,98779.76
2019-05-15T16:20:22.900Z,98777.91
2019-05-15T16:22:56.090Z,98779.36
2019-05-15T16:25:28.925Z,98768.00
2019-05-15T16:28:02.587Z,98771.56
2019-05-15T16:30:48.125Z,98766.61
2019-05-15T16:33:10.554Z,98766.87
2019-05-15T16:35:41.920Z,98765.36
2019-05-15T16:38:14.012Z,98768.88
2019-05-15T16:40:46.207Z,98764.52
2019-05-15T16:43:20.554Z,98762.11
2019-05-15T16:45:58.442Z,98772.67
2019-05-15T16:48:31.329Z,98766.59
2019-05-15T16:51:05.615Z,98769.98
2019-05-15T16:53:38.399Z,98768.68
2019-05-15T16:56:11.334Z,98765.20
2019-05-15T16:58:43.058Z,98762.98
2019-05-15T17:01:18.484Z,98767.05
2019-05-15T17:03:52.237Z,98770.16
2019-05-15T17:06:27.940Z,98772.33
2019-05-15T17:09:00.402Z,98762.45
2019-05-15T17:11:38.380Z,98765.31
2019-05-15T17:14:11.151Z,98768.02
2019-05-15T17:16:43.786Z,98767.31
2019-05-15T17:19:18.064Z,98771.59
2019-05-15T17:21:51.742Z,98767.64
2019-05-15T17:24:24.982Z,98763.95
2019-05-15T17:26:59.576Z,98764.77
2019-05-15T17:29:43.090Z,98765.27
2019-05-15T17:32:32.634Z,98759.55
2019-05-15T17:35:09.896Z,98760.29
2019-05-15T17:37:42.504Z,98764.58
2019-05-15T17:40:17.841Z,98764.36
2019-05-15T17:42:50.449Z,98754.22
2019-05-15T17:45:23.144Z,98757.09
2019-05-15T17:47:58.493Z,98759.50
2019-05-15T17:50:45.045Z,98751.36
2019-05-15T17:53:07.788Z,98754.58
2019-05-15T17:55:41.218Z,98755.69
2019-05-15T17:58:13.025Z,98749.48
2019-05-15T18:00:48.632Z,98750.64
2019-05-15T18:03:23.048Z,98748.08
2019-05-15T18:05:59.454Z,98744.70
2019-05-15T18:08:34.522Z,98750.02
2019-05-15T18:11:08.066Z,98743.89
2019-05-15T18:13:41.251Z,98741.09
2019-05-15T18:16:14.016Z,98744.67
2019-05-15T18:18:48.158Z,98748.66
2019-05-15T18:24:09.158Z,98741.91
2019-05-15T18:26:41.562Z,98739.97
2019-05-15T18:29:14.445Z,98739.59
2019-05-15T18:31:48.037Z,98738.63
2019-05-15T18:34:20.736Z,98735.27
2019-05-15T18:36:52.879Z,98739.34
2019-05-15T18:39:28.709Z,98741.15
2019-05-15T18:42:01.471Z,98742.48
2019-05-15T18:44:38.985Z,98742.98
2019-05-15T18:47:11.467Z,98740.72
2019-05-15T18:50:00.405Z,98743.47
2019-05-15T18:52:25.085Z,98741.94
2019-05-15T18:54:58.686Z,98739.34
2019-05-15T18:57:32.821Z,98742.47
2019-05-15T19:00:08.911Z,98741.93
2019-05-15T19:02:41.446Z,98743.06
2019-05-15T19:05:15.573Z,98743.20
2019-05-15T19:07:49.075Z,98744.53
2019-05-15T19:10:22.731Z,98744.31
2019-05-15T19:12:57.914Z,98743.05
2019-05-15T19:15:30.788Z,98744.45
2019-05-15T19:18:04.718Z,98744.81
2019-05-15T19:20:39.174Z,98744.31
2019-05-15T19:23:12.301Z,98749.70
2019-05-15T19:25:44.968Z,98747.79
2019-05-15T19:28:19.208Z,98748.42
2019-05-15T19:30:52.671Z,98749.77
2019-05-15T19:33:34.548Z,98748.64
2019-05-15T19:35:57.332Z,98754.44
2019-05-15T19:38:29.557Z,98744.16
2019-05-15T19:41:06.128Z,98747.37
2019-05-15T19:43:38.464Z,98746.53
2019-05-15T19:46:11.932Z,98746.31
2019-05-15T19:48:43.545Z,98750.59
2019-05-15T19:51:18.155Z,98746.17
2019-05-15T19:53:51.101Z,98747.17
2019-05-15T19:56:30.716Z,98747.03
2019-05-15T19:59:03.492Z,98746.45
2019-05-15T20:01:38.238Z,98741.22
2019-05-15T20:04:11.088Z,98740.16
2019-05-15T20:06:45.435Z,98734.31
2019-05-15T20:09:18.382Z,98730.61
2019-05-15T20:11:53.172Z,98735.14
2019-05-15T20:14:28.942Z,98727.95
2019-05-15T20:17:08.098Z,98727.59
2019-05-15T20:19:40.789Z,98725.38
2019-05-15T20:22:14.554Z,98732.55
2019-05-15T20:24:47.683Z,98728.44
2019-05-15T20:27:20.162Z,98721.73
2019-05-15T20:29:53.137Z,98724.88
2019-05-15T20:32:28.040Z,98716.77
2019-05-15T20:35:01.008Z,98712.15
2019-05-15T20:37:38.661Z,98719.98
2019-05-15T20:40:11.509Z,98721.91
2019-05-15T20:42:48.308Z,98717.22
2019-05-15T20:45:20.922Z,98712.83
2019-05-15T20:47:54.639Z,98719.80
2019-05-15T20:50:28.276Z,98713.58
2019-05-15T20:53:01.305Z,98720.92
2019-05-15T20:55:33.418Z,98716.37
2019-05-15T20:58:08.012Z,98720.21
2019-05-15T21:00:44.182Z,98719.26
2019-05-15T21:03:17.927Z,98714.84
2019-05-15T21:05:50.661Z,98713.85
2019-05-15T21:08:24.305Z,98710.25
2019-05-15T21:10:58.811Z,98710.61
2019-05-15T21:13:32.187Z,98715.03
2019-05-15T21:16:07.825Z,98712.73
2019-05-15T21:18:41.512Z,98707.63
2019-05-15T21:21:14.666Z,98713.98
2019-05-15T21:23:49.009Z,98708.61
2019-05-15T21:26:24.195Z,98707.48
2019-05-15T21:28:58.728Z,98704.19
2019-05-15T21:31:33.622Z,98698.14
2019-05-15T21:34:08.418Z,98695.35
2019-05-15T21:36:42.118Z,98694.84
2019-05-15T21:39:16.361Z,98696.42
2019-05-15T21:41:49.067Z,98689.94
2019-05-15T21:44:21.871Z,98690.81
2019-05-15T21:46:58.608Z,98693.84
2019-05-15T21:49:32.018Z,98687.30
2019-05-15T21:52:06.644Z,98689.40
2019-05-15T21:54:39.294Z,98684.89
2019-05-15T21:57:29.361Z,98682.53
2019-05-15T21:59:46.657Z,98683.06
2019-05-15T22:02:20.598Z,98680.52
2019-05-15T22:04:56.108Z,98684.63
2019-05-15T22:07:28.571Z,98678.01
2019-05-15T22:10:01.792Z,98675.36
2019-05-15T22:12:32.940Z,98677.80
2019-05-15T22:15:05.698Z,98673.70
2019-05-15T22:17:39.158Z,98667.52
2019-05-15T22:20:12.689Z,98666.19
2019-05-15T22:22:45.250Z,98663.33
2019-05-15T22:25:19.267Z,98660.55
2019-05-15T22:27:51.702Z,98653.26
2019-05-15T22:30:24.752Z,98656.97
2019-05-15T22:32:58.790Z,98649.48
2019-05-15T22:35:32.689Z,98651.99
2019-05-15T22:38:05.101Z,98651.41
2019-05-15T22:40:39.455Z,98651.94
2019-05-15T22:43:13.487Z,98643.91
2019-05-15T22:45:48.317Z,98641.78
2019-05-15T22:48:21.675Z,98639.20
2019-05-15T22:50:54.883Z,98636.31
2019-05-15T22:53:28.697Z,98627.31
2019-05-15T22:56:00.740Z,98626.36
2019-05-15T22:58:33.405Z,98622.06
2019-05-15T23:01:09.064Z,98621.59
2019-05-15T23:03:47.726Z,98622.20
2019-05-15T23:06:20.204Z,98620.27
2019-05-15T23:08:54.514Z,98613.83
2019-05-15T23:11:29.698Z,98610.12
2019-05-15T23:14:02.757Z,98606.67
2019-05-15T23:16:35.270Z,98608.29
2019-05-15T23:19:08.290Z,98604.03
2019-05-15T23:21:40.637Z,98594.98
2019-05-15T23:24:13.859Z,98594.24
2019-05-15T23:26:47.749Z,98590.27
2019-05-15T23:29:20.455Z,98583.07
2019-05-15T23:31:54.455Z,98583.55
2019-05-15T23:34:30.304Z,98578.17
2019-05-15T23:37:03.197Z,98574.55
2019-05-15T23:39:35.568Z,98575.05
2019-05-15T23:42:08.869Z,98569.63
2019-05-15T23:44:41.557Z,98572.95
2019-05-15T23:47:13.615Z,98572.27
2019-05-15T23:49:48.509Z,98566.72
2019-05-15T23:52:21.212Z,98561.89
2019-05-15T23:54:54.923Z,98557.08
2019-05-15T23:57:28.810Z,98544.87
